Time;durP1;ratioP1;P1;durP2;ratioP2;P2;SDS_P1;SDS_P2;PMS_P1;PMS_P2;Temp;Humidity;BMP_temperature;BMP_pressure;BME280_temperature;BME280_humidity;BME280_pressure;Samples;Min_cycle;Max_cycle;Signal;HPM_P1;HPM_P2
2021/04/23 00:00:46;;;;;;;24.25;20.10;;;333.60;1945.60;;;;;;5055750;28;20373;-72
2021/04/23 00:03:40;;;;;;;25.52;20.33;;;333.60;1945.60;;;;;;5055508;28;20485;-73
2021/04/23 00:06:16;;;;;;;22.48;19.77;;;333.50;1971.20;;;;;;5056054;28;20437;-71
2021/04/23 00:08:51;;;;;;;25.52;21.38;;;333.50;1971.20;;;;;;5055619;28;20486;-72
2021/04/23 00:11:19;;;;;;;25.38;21.35;;;333.50;1996.80;;;;;;5055566;28;20369;-71
2021/04/23 00:13:46;;;;;;;21.52;19.23;;;333.50;1996.80;;;;;;5055542;28;20354;-73
2021/04/23 00:16:12;;;;;;;24.05;20.73;;;333.40;1996.80;;;;;;5055704;28;20373;-71
2021/04/23 00:18:39;;;;;;;28.98;21.83;;;333.50;1996.80;;;;;;5055399;28;20453;-72
2021/04/23 00:21:08;;;;;;;22.52;19.85;;;333.30;2048.00;;;;;;5055678;28;20357;-71
2021/04/23 00:23:35;;;;;;;24.17;20.73;;;333.20;2048.00;;;;;;5055324;28;20480;-72
2021/04/23 00:26:03;;;;;;;26.33;22.10;;;333.30;2022.40;;;;;;5055572;28;20365;-71
2021/04/23 00:28:30;;;;;;;23.13;20.63;;;333.30;1996.80;;;;;;5055141;28;20373;-71
2021/04/23 00:30:56;;;;;;;24.70;21.13;;;333.30;1996.80;;;;;;5055716;28;20430;-72
2021/04/23 00:33:24;;;;;;;24.67;21.08;;;333.50;1945.60;;;;;;5055127;28;20458;-73
2021/04/23 00:35:51;;;;;;;23.85;20.42;;;333.40;1971.20;;;;;;5055609;28;20521;-73
2021/04/23 00:38:28;;;;;;;23.30;20.75;;;333.50;1971.20;;;;;;5055359;28;20453;-72
2021/04/23 00:41:01;;;;;;;22.45;20.00;;;333.40;1971.20;;;;;;5037089;28;20400;-72
2021/04/23 00:43:31;;;;;;;22.30;19.88;;;333.40;1971.20;;;;;;5054908;28;20339;-71
2021/04/23 00:45:58;;;;;;;21.77;18.90;;;333.30;1971.20;;;;;;5054389;28;20397;-72
2021/04/23 00:48:25;;;;;;;21.73;18.38;;;333.30;1945.60;;;;;;5055030;28;20365;-71
2021/04/23 00:50:55;;;;;;;22.55;18.45;;;333.30;1945.60;;;;;;5055073;28;20477;-72
2021/04/23 00:53:25;;;;;;;20.67;18.10;;;333.30;1920.00;;;;;;5054780;28;20409;-71
2021/04/23 00:55:54;;;;;;;22.00;18.05;;;333.20;1920.00;;;;;;5054655;28;20338;-72
2021/04/23 00:58:23;;;;;;;23.35;20.15;;;333.20;1920.00;;;;;;5054692;28;20343;-72
2021/04/23 01:00:52;;;;;;;23.08;19.33;;;333.30;1920.00;;;;;;5054892;28;20412;-72
2021/04/23 01:03:21;;;;;;;23.33;19.90;;;333.30;1894.40;;;;;;5054331;28;20421;-72
2021/04/23 01:05:49;;;;;;;23.20;19.08;;;333.50;1868.80;;;;;;5054866;28;20346;-72
2021/04/23 01:08:15;;;;;;;23.55;18.35;;;333.50;1868.80;;;;;;5054456;28;20476;-73
2021/04/23 01:10:41;;;;;;;21.65;19.02;;;333.50;1868.80;;;;;;5054510;28;20442;-73
2021/04/23 01:13:07;;;;;;;23.35;19.77;;;333.50;1868.80;;;;;;5054384;28;20547;-72
2021/04/23 01:15:34;;;;;;;24.25;19.88;;;333.40;1894.40;;;;;;5054637;28;20454;-72
2021/04/23 01:18:00;;;;;;;22.70;19.83;;;333.50;1894.40;;;;;;5054594;28;20350;-71
2021/04/23 01:20:27;;;;;;;22.67;18.50;;;333.60;1868.80;;;;;;5054212;28;20406;-73
2021/04/23 01:22:53;;;;;;;21.98;18.05;;;333.50;1868.80;;;;;;5054143;28;20361;-72
2021/04/23 01:25:20;;;;;;;23.42;19.05;;;333.50;1868.80;;;;;;5054167;28;20373;-73
2021/04/23 01:27:47;;;;;;;22.75;19.17;;;333.60;1843.20;;;;;;5054317;28;20160;-72
2021/04/23 01:30:17;;;;;;;25.30;19.50;;;333.40;1843.20;;;;;;5054098;28;20379;-72
2021/04/23 01:32:43;;;;;;;24.45;18.33;;;333.50;1843.20;;;;;;5053986;28;20381;-72
2021/04/23 01:35:15;;;;;;;21.70;17.50;;;333.50;1817.60;;;;;;5054082;28;20377;-72
2021/04/23 01:37:41;;;;;;;22.40;17.67;;;333.60;1817.60;;;;;;5054384;28;20359;-73
2021/04/23 01:40:10;;;;;;;21.67;18.02;;;333.50;1817.60;;;;;;5054071;28;20373;-73
2021/04/23 01:42:37;;;;;;;22.48;17.67;;;333.50;1792.00;;;;;;5054269;28;20362;-72
2021/04/23 01:45:06;;;;;;;22.95;17.60;;;333.60;1792.00;;;;;;5054180;28;20338;-73
2021/04/23 01:47:32;;;;;;;22.38;18.02;;;333.50;1792.00;;;;;;5053875;28;20415;-72
2021/04/23 01:49:58;;;;;;;24.38;18.52;;;333.50;1792.00;;;;;;5053807;28;20457;-71
2021/04/23 01:52:26;;;;;;;25.13;19.52;;;333.60;1792.00;;;;;;5053826;28;20361;-72
2021/04/23 01:54:52;;;;;;;24.80;19.23;;;333.70;1766.40;;;;;;5053781;28;20416;-71
2021/04/23 01:57:20;;;;;;;23.15;18.15;;;358.40;1766.40;;;;;;5054029;28;20096;-73
2021/04/23 01:59:47;;;;;;;23.38;19.05;;;333.70;1792.00;;;;;;5053730;28;20419;-73
2021/04/23 02:02:15;;;;;;;26.55;20.23;;;333.60;1792.00;;;;;;5053720;28;20473;-72
2021/04/23 02:04:45;;;;;;;26.33;20.02;;;333.60;1766.40;;;;;;5053503;28;20436;-72
2021/04/23 02:07:13;;;;;;;23.20;18.92;;;333.40;1792.00;;;;;;5035702;28;20369;-74
2021/04/23 02:09:39;;;;;;;22.23;18.95;;;333.30;1792.00;;;;;;5053359;28;20420;-73
2021/04/23 02:12:07;;;;;;;25.30;19.27;;;333.20;1817.60;;;;;;5053451;28;20393;-71
2021/04/23 02:14:33;;;;;;;22.40;18.67;;;333.30;1817.60;;;;;;5053343;28;20465;-72
2021/04/23 02:16:59;;;;;;;25.52;18.42;;;333.30;1792.00;;;;;;5053385;28;20339;-72
2021/04/23 02:19:26;;;;;;;25.90;18.80;;;333.40;1792.00;;;;;;5053257;28;20357;-73
2021/04/23 02:21:52;;;;;;;25.08;19.23;;;333.30;1792.00;;;;;;5053354;28;20432;-71
2021/04/23 02:24:19;;;;;;;23.95;20.30;;;333.10;1817.60;;;;;;5053249;28;20462;-72
2021/04/23 02:26:45;;;;;;;23.10;19.30;;;333.20;1817.60;;;;;;5053526;28;20369;-72
2021/04/23 02:29:15;;;;;;;24.55;19.65;;;333.00;1817.60;;;;;;5053171;28;20496;-71
2021/04/23 02:31:45;;;;;;;26.75;21.77;;;333.00;1843.20;;;;;;5053137;28;20480;-73
2021/04/23 02:34:15;;;;;;;22.52;18.20;;;333.00;1843.20;;;;;;5053444;28;20326;-72
2021/04/23 02:36:42;;;;;;;20.55;16.95;;;333.00;1817.60;;;;;;5053468;28;20480;-72
2021/04/23 02:39:11;;;;;;;26.17;16.50;;;332.90;1792.00;;;;;;5053089;28;20397;-73
2021/04/23 02:41:38;;;;;;;21.35;18.25;;;332.80;1792.00;;;;;;5053121;28;20361;-71
2021/04/23 02:44:05;;;;;;;21.85;17.90;;;332.90;1792.00;;;;;;5053971;28;20319;-72
2021/04/23 02:46:32;;;;;;;22.75;16.58;;;332.90;1792.00;;;;;;5053086;28;20347;-74
2021/04/23 02:48:58;;;;;;;27.10;17.98;;;332.90;1792.00;;;;;;5053024;28;20365;-71
2021/04/23 02:51:28;;;;;;;22.30;16.52;;;332.80;1766.40;;;;;;5053265;28;20397;-72
2021/04/23 02:53:57;;;;;;;18.65;15.27;;;332.80;1792.00;;;;;;5053297;28;20365;-72
2021/04/23 02:56:25;;;;;;;23.83;17.25;;;332.80;1766.40;;;;;;5052980;28;20362;-73
2021/04/23 02:58:53;;;;;;;29.95;20.67;;;308.10;1740.80;;;;;;5053251;28;20362;-72
2021/04/23 03:01:23;;;;;;;30.98;20.48;;;308.10;1766.40;;;;;;5053209;28;20362;-71
2021/04/23 03:03:49;;;;;;;24.42;18.48;;;308.00;1740.80;;;;;;5053284;28;20452;-72
2021/04/23 03:06:16;;;;;;;22.23;17.23;;;308.10;1740.80;;;;;;5052886;28;20370;-71
2021/04/23 03:08:43;;;;;;;22.10;16.20;;;332.80;1766.40;;;;;;5052817;28;20492;-72
2021/04/23 03:11:16;;;;;;;20.98;17.00;;;332.90;1740.80;;;;;;5056608;28;20366;-73
2021/04/23 03:13:45;;;;;;;22.50;16.75;;;333.00;1740.80;;;;;;5056802;28;20370;-73
2021/04/23 03:16:12;;;;;;;25.88;16.27;;;308.10;1740.80;;;;;;5056611;28;20470;-73
2021/04/23 03:18:41;;;;;;;24.00;16.13;;;307.90;1740.80;;;;;;5057170;28;20025;-71
2021/04/23 03:21:08;;;;;;;21.58;16.33;;;307.90;1740.80;;;;;;5038603;28;20025;-73
2021/04/23 03:23:35;;;;;;;27.25;20.27;;;308.00;1740.80;;;;;;5057090;28;20342;-72
2021/04/23 03:26:04;;;;;;;28.42;19.73;;;308.10;1766.40;;;;;;5056477;28;20095;-72
2021/04/23 03:28:32;;;;;;;25.23;19.08;;;307.90;1792.00;;;;;;5056391;28;20564;-73
2021/04/23 03:30:59;;;;;;;27.67;19.45;;;308.10;1792.00;;;;;;5056410;28;20357;-73
2021/04/23 03:33:25;;;;;;;35.35;20.45;;;308.00;1792.00;;;;;;5056282;28;20401;-74
2021/04/23 03:35:55;;;;;;;27.23;18.65;;;308.10;1792.00;;;;;;5056281;28;20453;-73
2021/04/23 03:38:23;;;;;;;22.75;17.17;;;308.10;1766.40;;;;;;5056125;28;20468;-74
2021/04/23 03:40:54;;;;;;;23.77;17.33;;;307.90;1792.00;;;;;;5056463;28;20354;-74
2021/04/23 03:43:21;;;;;;;21.02;16.25;;;307.80;1792.00;;;;;;5056171;28;20492;-73
2021/04/23 03:45:48;;;;;;;23.25;17.08;;;307.80;1766.40;;;;;;5055992;28;20392;-73
2021/04/23 03:48:15;;;;;;;22.90;16.58;;;307.80;1766.40;;;;;;5055893;28;20350;-71
2021/04/23 03:50:42;;;;;;;21.70;16.00;;;307.60;1792.00;;;;;;5056010;28;20343;-73
2021/04/23 03:53:12;;;;;;;20.88;15.52;;;307.60;1792.00;;;;;;5038135;28;20416;-73
2021/04/23 03:55:48;;;;;;;20.75;15.70;;;307.50;1792.00;;;;;;5055990;28;20412;-72
2021/04/23 03:58:17;;;;;;;24.75;17.05;;;307.60;1766.40;;;;;;5056300;28;20409;-74
2021/04/23 04:00:56;;;;;;;20.35;15.50;;;307.50;1792.00;;;;;;5055914;28;20469;-72
2021/04/23 04:03:24;;;;;;;23.55;15.73;;;307.40;1792.00;;;;;;5038072;28;20420;-73
2021/04/23 04:05:50;;;;;;;21.80;15.50;;;307.40;1817.60;;;;;;5055734;28;20361;-71
2021/04/23 04:08:16;;;;;;;22.30;15.48;;;307.30;1817.60;;;;;;5055637;28;20377;-73
2021/04/23 04:10:43;;;;;;;22.73;15.55;;;307.20;1792.00;;;;;;5055671;28;20424;-71
2021/04/23 04:13:09;;;;;;;22.30;14.45;;;307.30;1792.00;;;;;;5056194;28;20529;-71
2021/04/23 04:15:36;;;;;;;18.23;12.43;;;307.30;1766.40;;;;;;5055673;28;20025;-72
2021/04/23 04:18:03;;;;;;;18.15;11.98;;;307.30;1766.40;;;;;;5055581;28;20354;-72
2021/04/23 04:20:32;;;;;;;18.05;12.88;;;307.30;1740.80;;;;;;5054905;28;20401;-72
2021/04/23 04:22:59;;;;;;;18.60;12.52;;;307.40;1740.80;;;;;;5055319;28;20025;-72
2021/04/23 04:25:29;;;;;;;24.73;13.50;;;307.30;1740.80;;;;;;5055485;28;20366;-72
2021/04/23 04:27:56;;;;;;;19.50;12.18;;;307.20;1766.40;;;;;;5055652;28;20392;-72
2021/04/23 04:30:23;;;;;;;26.83;17.40;;;282.50;1740.80;;;;;;5055383;28;20354;-73
2021/04/23 04:32:50;;;;;;;37.13;21.42;;;282.50;1715.20;;;;;;5037719;28;20399;-71
2021/04/23 04:35:16;;;;;;;37.97;21.05;;;282.50;1740.80;;;;;;5055562;28;20477;-71
2021/04/23 04:37:42;;;;;;;28.70;16.30;;;282.50;1715.20;;;;;;5055790;28;20361;-72
2021/04/23 04:40:10;;;;;;;19.98;12.82;;;307.20;1740.80;;;;;;5055793;28;20446;-72
2021/04/23 04:42:37;;;;;;;16.42;11.55;;;282.50;1689.60;;;;;;5037313;28;20401;-72
2021/04/23 04:45:11;;;;;;;18.45;11.23;;;282.50;1664.00;;;;;;5055027;28;20408;-72
2021/04/23 04:47:38;;;;;;;23.20;13.00;;;282.50;1664.00;;;;;;5055422;28;20469;-71
2021/04/23 04:50:08;;;;;;;23.38;12.02;;;307.20;1689.60;;;;;;5054890;28;20385;-71
2021/04/23 04:52:35;;;;;;;20.63;11.35;;;307.20;1664.00;;;;;;5054981;28;20427;-72
2021/04/23 04:55:02;;;;;;;27.88;12.48;;;282.50;1638.40;;;;;;5054898;28;20404;-71
2021/04/23 04:57:28;;;;;;;18.23;10.52;;;307.20;1638.40;;;;;;5054959;28;20424;-71
2021/04/23 04:59:54;;;;;;;20.17;9.73;;;307.20;1638.40;;;;;;5054797;28;20416;-71
2021/04/23 05:02:20;;;;;;;23.80;11.27;;;282.50;1612.80;;;;;;5054787;28;20412;-72
2021/04/23 05:04:46;;;;;;;14.68;9.88;;;282.50;1587.20;;;;;;5054525;28;20400;-71
2021/04/23 05:07:12;;;;;;;17.75;9.35;;;282.40;1587.20;;;;;;5054681;28;20355;-72
2021/04/23 05:09:38;;;;;;;16.85;9.85;;;282.30;1612.80;;;;;;5054614;28;20029;-72
2021/04/23 05:12:05;;;;;;;20.95;9.88;;;282.40;1612.80;;;;;;5054821;28;20404;-73
2021/04/23 05:14:31;;;;;;;17.52;10.25;;;282.20;1587.20;;;;;;5054596;28;20496;-73
2021/04/23 05:16:57;;;;;;;22.65;11.98;;;282.30;1612.80;;;;;;5054633;28;20362;-71
2021/04/23 05:19:23;;;;;;;22.30;11.48;;;282.30;1587.20;;;;;;5054376;28;20412;-73
2021/04/23 05:21:49;;;;;;;16.63;9.18;;;282.40;1587.20;;;;;;5054363;28;20473;-73
2021/04/23 05:24:15;;;;;;;19.48;8.18;;;282.50;1561.60;;;;;;5054372;28;20373;-71
2021/04/23 05:26:41;;;;;;;20.63;9.63;;;282.40;1510.40;;;;;;5054247;28;20040;-73
2021/04/23 05:29:08;;;;;;;25.17;14.63;;;282.30;1536.00;;;;;;5054468;28;20369;-72
2021/04/23 05:31:34;;;;;;;34.85;18.75;;;282.40;1536.00;;;;;;5054069;28;20401;-72
2021/04/23 05:34:01;;;;;;;16.63;8.65;;;282.40;1536.00;;;;;;5054291;28;20031;-71
2021/04/23 05:36:27;;;;;;;12.20;7.63;;;282.40;1536.00;;;;;;5054082;28;20453;-72
2021/04/23 05:38:55;;;;;;;19.10;8.68;;;282.40;1510.40;;;;;;5053893;28;20355;-71
2021/04/23 05:41:21;;;;;;;18.15;7.90;;;282.50;1510.40;;;;;;5054249;28;20535;-72
2021/04/23 05:43:48;;;;;;;24.10;10.13;;;282.50;1484.80;;;;;;5054293;28;20028;-71
2021/04/23 05:46:18;;;;;;;22.70;9.27;;;307.20;1510.40;;;;;;5036000;28;20380;-71
2021/04/23 05:48:46;;;;;;;20.67;9.05;;;282.50;1433.60;;;;;;5054120;28;20414;-71
2021/04/23 05:51:12;;;;;;;16.98;8.05;;;282.50;1433.60;;;;;;5054169;28;20346;-73
2021/04/23 05:53:39;;;;;;;16.90;8.35;;;307.20;1459.20;;;;;;5053838;28;20021;-72
2021/04/23 05:56:05;;;;;;;16.92;7.72;;;307.20;1459.20;;;;;;5053839;28;20369;-73
2021/04/23 05:58:31;;;;;;;18.50;6.50;;;307.20;1433.60;;;;;;5053793;28;20454;-71
2021/04/23 06:00:57;;;;;;;13.68;6.97;;;307.20;1382.40;;;;;;5053679;28;20453;-71
2021/04/23 06:03:23;;;;;;;16.98;6.05;;;307.20;1382.40;;;;;;5053504;28;20488;-71
2021/04/23 06:05:50;;;;;;;16.92;6.75;;;307.30;1408.00;;;;;;5053673;28;20451;-71
2021/04/23 06:08:16;;;;;;;15.10;6.10;;;307.40;1382.40;;;;;;5053768;28;20408;-71
2021/04/23 06:14:04;;;;;;;18.75;6.97;;;307.60;1331.20;;;;;;5053603;28;20074;-73
2021/04/23 06:16:30;;;;;;;17.88;6.93;;;307.70;1331.20;;;;;;5053474;28;20417;-71
2021/04/23 06:18:57;;;;;;;14.70;6.72;;;308.00;1305.60;;;;;;5053430;28;20396;-73
2021/04/23 06:21:23;;;;;;;13.88;6.55;;;333.00;1305.60;;;;;;5053511;28;20385;-71
2021/04/23 06:23:50;;;;;;;15.20;5.97;;;358.40;1203.20;;;;;;5035497;28;20420;-71
2021/04/23 06:26:17;;;;;;;17.80;8.98;;;359.00;1126.40;;;;;;5053339;28;20463;-71
2021/04/23 06:28:45;;;;;;;16.17;8.07;;;409.80;1049.60;;;;;;5035867;28;20382;-71
2021/04/23 06:31:13;;;;;;;15.82;7.40;;;410.30;998.40;;;;;;5053251;28;20403;-70
2021/04/23 06:33:45;;;;;;;15.48;7.32;;;409.90;998.40;;;;;;5053374;28;20403;-74
2021/04/23 06:36:11;;;;;;;15.98;7.18;;;409.70;1049.60;;;;;;5053392;28;20351;-73
2021/04/23 06:38:38;;;;;;;11.95;6.25;;;384.20;1049.60;;;;;;5053105;28;20417;-74
2021/04/23 06:41:04;;;;;;;18.20;7.25;;;384.00;1100.80;;;;;;5053265;28;20377;-71
2021/04/23 06:43:30;;;;;;;19.95;8.40;;;359.00;1126.40;;;;;;5053219;28;20367;-73
2021/04/23 06:45:57;;;;;;;13.43;6.43;;;358.90;1177.60;;;;;;5057053;28;20564;-71
2021/04/23 06:48:23;;;;;;;14.95;6.72;;;358.90;1126.40;;;;;;5057161;28;20358;-71
2021/04/23 06:50:50;;;;;;;11.75;6.85;;;358.90;1100.80;;;;;;5057220;28;20028;-71
2021/04/23 06:53:17;;;;;;;13.15;7.15;;;358.80;1152.00;;;;;;5057281;28;20462;-71
2021/04/23 06:55:45;;;;;;;16.30;8.10;;;358.90;1152.00;;;;;;5057134;28;20366;-71
2021/04/23 06:58:11;;;;;;;14.30;7.53;;;358.90;1152.00;;;;;;5057007;28;20416;-71
2021/04/23 07:00:39;;;;;;;19.55;7.53;;;358.80;1177.60;;;;;;5056904;28;20346;-71
2021/04/23 07:03:10;;;;;;;19.35;8.60;;;358.90;1177.60;;;;;;5056769;28;20446;-71
2021/04/23 07:05:41;;;;;;;15.35;8.77;;;359.00;1177.60;;;;;;5057246;28;20351;-72
2021/04/23 07:08:07;;;;;;;16.27;8.05;;;359.00;1152.00;;;;;;5056950;28;20457;-74
2021/04/23 07:10:34;;;;;;;23.35;10.68;;;359.00;1152.00;;;;;;5039410;28;20412;-70
2021/04/23 07:13:01;;;;;;;10.18;6.43;;;359.10;1152.00;;;;;;5056784;28;20451;-73
2021/04/23 07:15:29;;;;;;;19.25;10.02;;;359.10;1152.00;;;;;;5057102;28;20460;-72
2021/04/23 07:17:56;;;;;;;25.67;10.60;;;359.20;1126.40;;;;;;5057001;28;20043;-73
2021/04/23 07:20:23;;;;;;;22.60;10.90;;;359.30;1126.40;;;;;;5056699;28;20415;-72
2021/04/23 07:22:51;;;;;;;20.88;10.07;;;359.30;1126.40;;;;;;5056679;28;20402;-71
2021/04/23 07:25:18;;;;;;;20.90;8.20;;;359.30;1152.00;;;;;;5056558;28;20355;-73
2021/04/23 07:27:45;;;;;;;19.25;9.88;;;359.30;1126.40;;;;;;5056592;28;20469;-74
2021/04/23 07:30:15;;;;;;;16.50;8.98;;;359.20;1126.40;;;;;;5056740;28;20043;-71
2021/04/23 07:32:41;;;;;;;14.30;7.72;;;359.20;1177.60;;;;;;5056442;28;20541;-71
2021/04/23 07:35:08;;;;;;;17.80;7.70;;;384.00;1177.60;;;;;;5056796;28;20385;-71
2021/04/23 07:37:35;;;;;;;13.25;7.40;;;359.30;1152.00;;;;;;5056416;28;20412;-71
2021/04/23 07:40:05;;;;;;;16.25;7.45;;;384.00;1152.00;;;;;;5056636;28;20369;-70
2021/04/23 07:42:32;;;;;;;13.80;7.35;;;359.30;1126.40;;;;;;5056318;28;20363;-72
2021/04/23 07:44:58;;;;;;;12.63;6.57;;;384.10;1126.40;;;;;;5056157;28;20451;-71
2021/04/23 07:47:24;;;;;;;20.48;7.40;;;384.20;1100.80;;;;;;5056118;28;20362;-71
2021/04/23 07:49:50;;;;;;;13.75;7.28;;;384.10;1100.80;;;;;;5056047;28;20385;-70
2021/04/23 07:52:17;;;;;;;13.15;6.18;;;384.10;1075.20;;;;;;5055902;28;20438;-71
2021/04/23 07:54:43;;;;;;;19.23;6.30;;;384.20;1100.80;;;;;;5056094;28;20453;-73
2021/04/23 07:57:10;;;;;;;13.02;6.45;;;384.10;1075.20;;;;;;5056211;28;20350;-71
2021/04/23 07:59:38;;;;;;;16.65;6.93;;;384.30;1075.20;;;;;;5055875;28;20365;-70
2021/04/23 08:02:06;;;;;;;16.27;6.88;;;384.40;1049.60;;;;;;5056229;28;20369;-70
2021/04/23 08:04:34;;;;;;;17.25;6.85;;;384.50;1075.20;;;;;;5055752;28;20494;-71
2021/04/23 08:07:00;;;;;;;16.73;7.35;;;384.60;1049.60;;;;;;5056019;28;20032;-70
2021/04/23 08:09:29;;;;;;;13.90;6.25;;;384.50;998.40;;;;;;5055717;28;20518;-71
2021/04/23 08:11:56;;;;;;;14.18;5.57;;;384.50;998.40;;;;;;5055718;28;20035;-72
2021/04/23 08:14:23;;;;;;;17.50;5.82;;;384.40;998.40;;;;;;5056046;28;20397;-72
2021/04/23 08:16:49;;;;;;;13.38;5.38;;;384.50;998.40;;;;;;5055966;28;20099;-71
2021/04/23 08:19:15;;;;;;;14.05;5.13;;;384.50;972.80;;;;;;5055530;28;20449;-71
2021/04/23 08:21:41;;;;;;;12.82;5.82;;;384.60;1024.00;;;;;;5055724;28;20449;-71
2021/04/23 08:24:08;;;;;;;16.40;5.35;;;384.50;1024.00;;;;;;5055765;28;20055;-72
2021/04/23 08:26:35;;;;;;;16.73;5.30;;;384.50;1024.00;;;;;;5056135;28;20353;-71
2021/04/23 08:29:02;;;;;;;11.32;5.32;;;384.50;998.40;;;;;;5055260;28;20420;-71
2021/04/23 08:31:29;;;;;;;15.23;5.05;;;384.60;998.40;;;;;;5055232;28;20369;-72
2021/04/23 08:33:55;;;;;;;36.97;6.85;;;384.60;972.80;;;;;;5037707;28;20433;-71
2021/04/23 08:36:22;;;;;;;22.52;6.45;;;384.70;998.40;;;;;;5055322;28;20071;-71
2021/04/23 08:38:48;;;;;;;14.55;4.97;;;384.60;998.40;;;;;;5055142;28;20445;-72
2021/04/23 08:41:14;;;;;;;17.00;5.90;;;384.50;947.20;;;;;;5055029;28;20350;-72
2021/04/23 08:43:40;;;;;;;12.68;5.05;;;384.50;972.80;;;;;;5055165;28;20400;-71
2021/04/23 08:46:06;;;;;;;10.68;4.78;;;384.50;947.20;;;;;;5055011;28;20518;-71
2021/04/23 08:48:33;;;;;;;18.05;5.88;;;384.50;947.20;;;;;;5054808;28;20389;-70
2021/04/23 08:51:00;;;;;;;16.88;6.22;;;384.60;998.40;;;;;;5054855;28;20539;-71
2021/04/23 08:53:28;;;;;;;12.45;5.20;;;384.50;998.40;;;;;;5054892;28;20373;-72
2021/04/23 08:55:55;;;;;;;16.25;5.97;;;384.60;972.80;;;;;;5054633;28;20412;-71
2021/04/23 08:58:22;;;;;;;15.45;6.00;;;384.80;972.80;;;;;;5054701;28;20377;-70
2021/04/23 09:00:49;;;;;;;11.27;5.28;;;384.70;972.80;;;;;;5054878;28;20403;-71
2021/04/23 09:03:19;;;;;;;10.93;4.60;;;384.80;921.60;;;;;;5054471;28;20051;-71
2021/04/23 09:06:24;;;;;;;14.63;5.93;;;384.80;921.60;;;;;;5054953;28;20111;-71
2021/04/23 09:09:02;;;;;;;10.55;4.47;;;384.80;921.60;;;;;;5054361;28;20020;-70
2021/04/23 09:11:33;;;;;;;11.93;4.20;;;384.90;921.60;;;;;;5036975;28;20405;-71
2021/04/23 09:14:07;;;;;;;13.18;4.75;;;409.60;972.80;;;;;;5054520;28;20561;-71
2021/04/23 09:16:55;;;;;;;10.38;4.78;;;409.60;972.80;;;;;;5036533;28;20366;-70
2021/04/23 09:19:32;;;;;;;10.57;4.47;;;409.60;972.80;;;;;;5054365;28;20404;-71
2021/04/23 09:22:01;;;;;;;11.32;4.97;;;409.60;947.20;;;;;;5054652;28;20421;-71
2021/04/23 09:24:31;;;;;;;10.65;4.50;;;409.60;896.00;;;;;;5054298;28;20368;-71
2021/04/23 09:27:07;;;;;;;10.30;4.07;;;409.70;896.00;;;;;;5054287;28;20417;-71
2021/04/23 09:29:36;;;;;;;9.38;4.40;;;409.60;896.00;;;;;;5054408;28;20381;-72
2021/04/23 09:32:12;;;;;;;10.52;4.10;;;409.60;896.00;;;;;;5054116;28;20381;-72
2021/04/23 09:34:58;;;;;;;12.50;5.20;;;409.70;896.00;;;;;;5054246;28;20365;-71
2021/04/23 09:37:30;;;;;;;12.45;4.68;;;409.70;947.20;;;;;;5054213;28;20372;-70
2021/04/23 09:40:13;;;;;;;9.60;4.53;;;409.80;921.60;;;;;;5054102;28;20366;-71
2021/04/23 09:42:55;;;;;;;12.93;4.55;;;409.60;921.60;;;;;;5054100;28;20521;-71
2021/04/23 09:45:26;;;;;;;8.40;4.22;;;409.60;921.60;;;;;;5054010;28;20470;-74
2021/04/23 09:47:52;;;;;;;11.43;3.65;;;409.70;921.60;;;;;;5054175;28;20454;-72
2021/04/23 09:50:21;;;;;;;12.80;4.82;;;409.80;921.60;;;;;;5054128;28;20416;-72
2021/04/23 09:52:51;;;;;;;8.98;3.80;;;409.80;870.40;;;;;;5053818;28;20392;-71
2021/04/23 09:55:23;;;;;;;12.32;4.60;;;409.90;896.00;;;;;;5036844;28;20392;-72
2021/04/23 09:57:52;;;;;;;8.23;3.92;;;410.10;896.00;;;;;;5053699;28;20365;-71
2021/04/23 10:00:20;;;;;;;9.93;3.88;;;410.20;844.80;;;;;;5053608;28;20362;-72
2021/04/23 10:02:50;;;;;;;11.77;4.90;;;410.10;870.40;;;;;;5053574;28;20545;-72
2021/04/23 10:05:35;;;;;;;9.93;4.65;;;410.10;921.60;;;;;;5051605;28;20389;-73
2021/04/23 10:08:10;;;;;;;15.63;4.93;;;410.00;896.00;;;;;;5053843;28;20473;-72
2021/04/23 10:10:37;;;;;;;12.43;5.13;;;410.10;896.00;;;;;;5053827;28;20052;-70
2021/04/23 10:13:09;;;;;;;14.05;7.25;;;409.90;896.00;;;;;;5053572;28;20383;-72
2021/04/23 10:15:37;;;;;;;13.75;5.93;;;410.10;947.20;;;;;;5054163;28;20468;-71
2021/04/23 10:18:09;;;;;;;14.88;6.50;;;410.20;921.60;;;;;;5053135;28;20444;-72
2021/04/23 10:20:36;;;;;;;12.35;5.28;;;410.10;896.00;;;;;;5052923;28;20363;-72
2021/04/23 10:23:06;;;;;;;27.23;12.60;;;410.10;896.00;;;;;;5053312;28;20458;-73
2021/04/23 10:25:33;;;;;;;11.68;5.18;;;410.00;870.40;;;;;;5054013;28;20373;-71
2021/04/23 10:28:01;;;;;;;15.60;6.53;;;410.10;870.40;;;;;;5053292;28;20368;-72
2021/04/23 10:30:31;;;;;;;44.25;13.02;;;410.00;870.40;;;;;;5053546;28;20335;-73
2021/04/23 10:33:02;;;;;;;41.33;12.00;;;410.10;896.00;;;;;;5053272;28;20372;-71
2021/04/23 10:35:29;;;;;;;20.75;7.35;;;410.20;896.00;;;;;;5053120;28;20392;-72
2021/04/23 10:38:13;;;;;;;15.88;4.28;;;410.10;896.00;;;;;;5052913;28;20017;-73
2021/04/23 10:40:42;;;;;;;43.92;12.30;;;410.30;870.40;;;;;;5053006;28;20385;-73
2021/04/23 10:43:16;;;;;;;54.90;14.73;;;410.30;896.00;;;;;;5053042;28;20423;-72
2021/04/23 10:45:48;;;;;;;11.05;4.57;;;410.30;896.00;;;;;;5053231;28;20431;-73
2021/04/23 10:48:15;;;;;;;11.68;5.07;;;410.40;896.00;;;;;;5053460;28;20398;-72
2021/04/23 10:50:46;;;;;;;9.05;4.95;;;410.50;870.40;;;;;;5053487;28;20458;-72
2021/04/23 10:53:13;;;;;;;42.40;13.30;;;435.20;921.60;;;;;;5053155;28;20377;-71
2021/04/23 10:55:55;;;;;;;17.35;7.00;;;435.30;870.40;;;;;;5053071;28;20408;-73
2021/04/23 10:58:27;;;;;;;57.42;15.52;;;435.40;870.40;;;;;;5035551;28;20472;-73
2021/04/23 11:00:56;;;;;;;14.07;4.97;;;435.40;819.20;;;;;;5053194;28;20368;-71
2021/04/23 11:03:25;;;;;;;41.35;12.43;;;435.40;844.80;;;;;;5052859;28;20383;-71
2021/04/23 11:06:03;;;;;;;76.32;23.02;;;435.50;896.00;;;;;;5053192;28;20378;-70
2021/04/23 11:08:32;;;;;;;43.13;12.07;;;435.60;896.00;;;;;;5053364;28;20447;-72
2021/04/23 11:11:02;;;;;;;71.05;17.02;;;435.60;819.20;;;;;;5052853;28;20087;-72
2021/04/23 11:13:32;;;;;;;16.15;8.23;;;435.60;844.80;;;;;;5052860;28;20369;-70
2021/04/23 11:16:25;;;;;;;14.07;4.82;;;435.60;819.20;;;;;;5052930;28;20071;-71
2021/04/23 11:18:57;;;;;;;28.75;5.45;;;435.50;844.80;;;;;;5040371;28;20477;-72
2021/04/23 11:21:34;;;;;;;10.15;3.95;;;435.60;844.80;;;;;;5052752;28;20413;-71
2021/04/23 11:24:16;;;;;;;7.90;4.63;;;435.50;793.60;;;;;;5053094;28;20357;-70
2021/04/23 11:26:58;;;;;;;9.02;4.53;;;435.60;819.20;;;;;;5052980;28;20385;-70
2021/04/23 11:29:48;;;;;;;10.23;4.82;;;435.80;819.20;;;;;;5052641;28;20473;-70
2021/04/23 11:32:27;;;;;;;11.57;5.30;;;435.90;819.20;;;;;;5056730;28;20390;-70
2021/04/23 11:35:08;;;;;;;12.68;5.13;;;436.00;844.80;;;;;;5056270;28;20469;-74
2021/04/23 11:37:43;;;;;;;17.77;4.93;;;435.90;793.60;;;;;;5056264;28;20419;-72
2021/04/23 11:40:25;;;;;;;13.55;4.88;;;435.90;768.00;;;;;;5056475;28;20358;-71
2021/04/23 11:42:55;;;;;;;10.80;4.88;;;435.90;819.20;;;;;;5056166;28;20346;-72
2021/04/23 11:45:24;;;;;;;8.48;3.75;;;435.90;793.60;;;;;;5056031;28;20346;-74
2021/04/23 11:47:55;;;;;;;10.32;4.03;;;435.90;768.00;;;;;;5056308;28;20362;-72
2021/04/23 11:50:35;;;;;;;10.05;3.97;;;435.90;768.00;;;;;;5055971;28;20470;-72
2021/04/23 11:53:09;;;;;;;7.35;3.85;;;435.80;793.60;;;;;;5055919;28;20414;-73
2021/04/23 11:55:41;;;;;;;11.60;3.42;;;435.80;768.00;;;;;;5055759;28;20373;-71
2021/04/23 11:58:14;;;;;;;8.43;3.03;;;435.70;768.00;;;;;;5056227;28;20408;-71
2021/04/23 12:00:46;;;;;;;9.93;3.95;;;435.70;768.00;;;;;;5056031;28;20392;-72
2021/04/23 12:03:18;;;;;;;14.40;4.50;;;435.90;793.60;;;;;;5055674;28;20373;-75
2021/04/23 12:05:49;;;;;;;14.25;4.07;;;435.90;844.80;;;;;;5055754;28;20444;-74
2021/04/23 12:08:21;;;;;;;7.00;3.75;;;436.10;819.20;;;;;;5055677;28;20373;-72
2021/04/23 12:10:53;;;;;;;8.85;4.43;;;436.10;768.00;;;;;;5055652;28;20564;-71
2021/04/23 12:13:25;;;;;;;13.70;4.43;;;460.80;819.20;;;;;;5055495;28;20408;-74
2021/04/23 12:15:58;;;;;;;7.63;3.90;;;460.90;793.60;;;;;;5055555;28;20397;-73
2021/04/23 12:18:25;;;;;;;11.13;4.37;;;460.80;793.60;;;;;;5056006;28;20509;-72
2021/04/23 12:20:54;;;;;;;8.43;3.80;;;436.10;742.40;;;;;;5056296;28;20446;-71